createdAt,value
2018-05-17T00:00:06.652Z,11.50
2018-05-17T00:01:06.691Z,11.50
2018-05-17T00:02:06.694Z,11.50
2018-05-17T00:03:06.671Z,11.50
2018-05-17T00:04:06.664Z,11.50
2018-05-17T00:05:06.670Z,11.50
2018-05-17T00:06:06.600Z,22.50
2018-05-17T00:07:06.643Z,22.50
2018-05-17T00:08:06.618Z,22.50
2018-05-17T00:09:06.620Z,22.50
2018-05-17T00:10:06.694Z,22.50
2018-05-17T00:11:06.619Z,22.50
2018-05-17T00:12:06.621Z,22.50
2018-05-17T00:13:06.619Z,22.50
2018-05-17T00:14:06.572Z,22.50
2018-05-17T00:15:06.620Z,22.50
2018-05-17T00:16:06.705Z,14.30
2018-05-17T00:17:06.653Z,14.30
2018-05-17T00:18:06.713Z,14.30
2018-05-17T00:19:06.720Z,14.30
2018-05-17T00:20:06.639Z,14.30
2018-05-17T00:21:06.706Z,14.30
2018-05-17T00:22:06.644Z,14.30
2018-05-17T00:23:06.708Z,14.30
2018-05-17T00:24:06.708Z,14.30
2018-05-17T00:25:06.638Z,14.30
2018-05-17T00:26:06.737Z,13.80
2018-05-17T00:27:06.607Z,13.80
2018-05-17T00:28:06.681Z,13.80
2018-05-17T00:29:06.769Z,13.80
2018-05-17T00:30:06.658Z,13.80
2018-05-17T00:31:06.754Z,13.80
2018-05-17T00:32:06.752Z,13.80
2018-05-17T00:33:06.700Z,13.80
2018-05-17T00:34:06.750Z,13.80
2018-05-17T00:35:06.618Z,13.80
2018-05-17T00:36:06.687Z,10.80
2018-05-17T00:37:06.754Z,10.80
2018-05-17T00:38:06.698Z,10.80
2018-05-17T00:39:06.658Z,10.80
2018-05-17T00:40:06.688Z,10.80
2018-05-17T00:41:06.635Z,10.80
2018-05-17T00:42:06.687Z,10.80
2018-05-17T00:43:06.688Z,10.80
2018-05-17T00:44:06.625Z,10.80
2018-05-17T00:45:06.748Z,10.80
2018-05-17T00:46:06.689Z,10.70
2018-05-17T00:47:06.724Z,10.70
2018-05-17T00:48:06.684Z,10.70
2018-05-17T00:49:06.783Z,10.70
2018-05-17T00:50:06.725Z,10.70
2018-05-17T00:51:06.645Z,10.70
2018-05-17T00:52:06.628Z,10.70
2018-05-17T00:53:06.687Z,10.70
2018-05-17T00:54:06.760Z,10.70
2018-05-17T00:55:06.631Z,10.70
2018-05-17T00:56:06.645Z,11.80
2018-05-17T00:57:06.650Z,11.80
2018-05-17T00:58:06.672Z,11.80
2018-05-17T00:59:06.651Z,11.80
2018-05-17T01:00:06.679Z,11.80
2018-05-17T01:01:06.609Z,11.80
2018-05-17T01:02:06.722Z,11.80
2018-05-17T01:03:06.726Z,11.80
2018-05-17T01:04:06.680Z,11.80
2018-05-17T01:05:06.654Z,11.80
2018-05-17T01:06:06.729Z,13.50
2018-05-17T01:07:06.678Z,13.50
2018-05-17T01:08:06.665Z,13.50
2018-05-17T01:09:06.764Z,13.50
2018-05-17T01:10:06.733Z,13.50
2018-05-17T01:11:06.735Z,13.50
2018-05-17T01:12:06.944Z,13.50
2018-05-17T01:13:06.667Z,13.50
2018-05-17T01:14:06.675Z,13.50
2018-05-17T01:15:06.728Z,13.50
2018-05-17T01:16:06.669Z,13.00
2018-05-17T01:17:06.740Z,13.00
2018-05-17T01:18:06.662Z,13.00
2018-05-17T01:19:06.740Z,13.00
2018-05-17T01:20:06.665Z,13.00
2018-05-17T01:21:06.744Z,13.00
2018-05-17T01:22:06.665Z,13.00
2018-05-17T01:23:06.664Z,13.00
2018-05-17T01:24:06.743Z,13.00
2018-05-17T01:25:06.741Z,13.00
2018-05-17T01:26:06.723Z,17.99
2018-05-17T01:27:06.765Z,17.99
2018-05-17T01:28:06.726Z,17.99
2018-05-17T01:29:06.787Z,17.99
2018-05-17T01:30:06.780Z,17.99
2018-05-17T01:31:06.786Z,17.99
2018-05-17T01:32:06.777Z,17.99
2018-05-17T01:33:06.750Z,17.99
2018-05-17T01:34:06.723Z,17.99
2018-05-17T01:35:06.899Z,17.99
2018-05-17T01:36:06.781Z,14.00
2018-05-17T01:37:06.674Z,14.00
2018-05-17T01:38:06.677Z,14.00
2018-05-17T01:39:06.661Z,14.00
2018-05-17T01:40:06.700Z,14.00
2018-05-17T01:41:06.703Z,14.00
2018-05-17T01:42:06.825Z,14.00
2018-05-17T01:43:06.659Z,14.00
2018-05-17T01:44:06.628Z,14.00
2018-05-17T01:45:06.703Z,14.00
2018-05-17T01:46:06.729Z,15.60
2018-05-17T01:47:06.730Z,15.60
2018-05-17T01:48:06.823Z,15.60
2018-05-17T01:49:06.668Z,15.60
2018-05-17T01:50:06.843Z,15.60
2018-05-17T01:51:06.772Z,15.60
2018-05-17T01:52:06.737Z,15.60
2018-05-17T01:53:06.783Z,15.60
2018-05-17T01:54:06.808Z,15.60
2018-05-17T01:55:06.804Z,15.60
2018-05-17T01:56:06.785Z,15.60
2018-05-17T01:57:06.734Z,15.60
2018-05-17T01:58:06.738Z,15.60
2018-05-17T01:59:06.794Z,15.60
2018-05-17T02:00:06.794Z,15.60
2018-05-17T02:01:06.773Z,15.60
2018-05-17T02:02:06.743Z,15.60
2018-05-17T02:03:06.694Z,15.60
2018-05-17T02:04:06.815Z,15.60
2018-05-17T02:05:06.800Z,15.60
2018-05-17T02:06:06.783Z,12.50
2018-05-17T02:07:06.721Z,12.50
2018-05-17T02:08:06.663Z,12.50
2018-05-17T02:09:06.783Z,12.50
2018-05-17T02:10:06.778Z,12.50
2018-05-17T02:11:06.707Z,12.50
2018-05-17T02:12:06.715Z,12.50
2018-05-17T02:13:06.781Z,12.50
2018-05-17T02:14:06.725Z,12.50
2018-05-17T02:15:06.718Z,12.50
2018-05-17T02:16:06.705Z,19.30
2018-05-17T02:17:06.800Z,19.30
2018-05-17T02:18:06.755Z,19.30
2018-05-17T02:19:06.803Z,19.30
2018-05-17T02:20:06.783Z,19.30
2018-05-17T02:21:06.788Z,19.30
2018-05-17T02:22:06.783Z,19.30
2018-05-17T02:23:06.756Z,19.30
2018-05-17T02:24:06.825Z,19.30
2018-05-17T02:25:06.818Z,19.30
2018-05-17T02:26:06.761Z,19.30
2018-05-17T02:27:06.816Z,14.50
2018-05-17T02:28:06.830Z,14.50
2018-05-17T02:29:06.758Z,14.50
2018-05-17T02:30:06.762Z,14.50
2018-05-17T02:31:06.717Z,14.50
2018-05-17T02:32:06.754Z,14.50
2018-05-17T02:33:06.788Z,14.50
2018-05-17T02:34:06.700Z,14.50
2018-05-17T02:35:11.113Z,14.50
2018-05-17T02:36:06.775Z,14.50
2018-05-17T02:37:06.695Z,14.40
2018-05-17T02:38:06.775Z,14.40
2018-05-17T02:39:06.766Z,14.40
2018-05-17T02:40:06.861Z,14.40
2018-05-17T02:41:06.766Z,14.40
2018-05-17T02:42:06.755Z,14.40
2018-05-17T02:43:06.766Z,14.40
2018-05-17T02:44:06.779Z,14.40
2018-05-17T02:45:06.821Z,14.40
2018-05-17T02:46:06.721Z,14.40
2018-05-17T02:47:06.802Z,15.00
2018-05-17T02:48:06.805Z,15.00
2018-05-17T02:49:06.847Z,15.00
2018-05-17T02:50:06.733Z,15.00
2018-05-17T02:51:06.738Z,15.00
2018-05-17T02:52:06.699Z,15.00
2018-05-17T02:53:06.740Z,15.00
2018-05-17T02:54:06.826Z,15.00
2018-05-17T02:55:06.737Z,15.00
2018-05-17T02:56:06.811Z,15.00
2018-05-17T02:57:06.833Z,15.90
2018-05-17T02:58:06.805Z,15.90
2018-05-17T02:59:06.846Z,15.90
2018-05-17T03:00:06.767Z,15.90
2018-05-17T03:01:06.813Z,15.90
2018-05-17T03:02:06.830Z,15.90
2018-05-17T03:03:06.766Z,15.90
2018-05-17T03:04:06.812Z,15.90
2018-05-17T03:05:06.810Z,15.90
2018-05-17T03:06:06.844Z,15.90
2018-05-17T03:07:06.812Z,16.80
2018-05-17T03:08:06.795Z,16.80
2018-05-17T03:09:06.848Z,16.80
2018-05-17T03:10:06.797Z,16.80
2018-05-17T03:11:06.793Z,16.80
2018-05-17T03:12:06.797Z,16.80
2018-05-17T03:13:06.789Z,16.80
2018-05-17T03:14:06.738Z,16.80
2018-05-17T03:15:06.862Z,16.80
2018-05-17T03:16:06.725Z,16.80
2018-05-17T03:17:06.831Z,11.70
2018-05-17T03:18:06.818Z,11.70
2018-05-17T03:19:06.841Z,11.70
2018-05-17T03:20:06.841Z,11.70
2018-05-17T03:21:06.848Z,11.70
2018-05-17T03:22:06.821Z,11.70
2018-05-17T03:23:06.856Z,11.70
2018-05-17T03:24:06.859Z,11.70
2018-05-17T03:25:06.805Z,11.70
2018-05-17T03:26:06.851Z,11.70
2018-05-17T03:27:06.704Z,16.80
2018-05-17T03:28:06.751Z,16.80
2018-05-17T03:29:06.826Z,16.80
2018-05-17T03:30:06.820Z,16.80
2018-05-17T03:31:06.736Z,16.80
2018-05-17T03:32:06.736Z,16.80
2018-05-17T03:33:06.824Z,16.80
2018-05-17T03:34:06.738Z,16.80
2018-05-17T03:35:06.821Z,16.80
2018-05-17T03:36:06.753Z,16.80
2018-05-17T03:37:06.791Z,10.70
2018-05-17T03:38:06.751Z,10.70
2018-05-17T03:39:06.741Z,10.70
2018-05-17T03:40:06.866Z,10.70
2018-05-17T03:41:06.814Z,10.70
2018-05-17T03:42:06.835Z,10.70
2018-05-17T03:43:06.833Z,10.70
2018-05-17T03:44:06.809Z,10.70
2018-05-17T03:45:06.742Z,10.70
2018-05-17T03:46:06.857Z,10.70
2018-05-17T03:47:06.757Z,15.30
2018-05-17T03:48:06.821Z,15.30
2018-05-17T03:49:06.846Z,15.30
2018-05-17T03:50:06.916Z,15.30
2018-05-17T03:51:06.818Z,15.30
2018-05-17T03:52:06.762Z,15.30
2018-05-17T03:53:06.871Z,15.30
2018-05-17T03:54:06.867Z,15.30
2018-05-17T03:55:06.879Z,15.30
2018-05-17T03:56:06.783Z,15.30
2018-05-17T03:57:06.848Z,18.40
2018-05-17T03:58:06.784Z,18.40
2018-05-17T03:59:06.843Z,18.40
2018-05-17T04:00:06.854Z,18.40
2018-05-17T04:01:06.858Z,18.40
2018-05-17T04:02:06.786Z,18.40
2018-05-17T04:03:06.881Z,18.40
2018-05-17T04:04:06.784Z,18.40
2018-05-17T04:05:06.913Z,18.40
2018-05-17T04:06:06.876Z,18.40
2018-05-17T04:07:06.886Z,17.40
2018-05-17T04:08:06.751Z,17.40
2018-05-17T04:09:06.823Z,17.40
2018-05-17T04:10:06.827Z,17.40
2018-05-17T04:11:06.850Z,17.40
2018-05-17T04:12:06.834Z,17.40
2018-05-17T04:13:06.877Z,17.40
2018-05-17T04:14:06.832Z,17.40
2018-05-17T04:15:06.853Z,17.40
2018-05-17T04:16:06.862Z,17.40
2018-05-17T04:17:06.864Z,11.80
2018-05-17T04:18:06.868Z,11.80
2018-05-17T04:19:06.862Z,11.80
2018-05-17T04:20:06.862Z,11.80
2018-05-17T04:21:06.872Z,11.80
2018-05-17T04:22:06.860Z,11.80
2018-05-17T04:23:06.861Z,11.80
2018-05-17T04:24:06.894Z,11.80
2018-05-17T04:25:06.866Z,11.80
2018-05-17T04:26:06.794Z,11.80
2018-05-17T04:27:06.726Z,21.00
2018-05-17T04:28:06.854Z,21.00
2018-05-17T04:29:06.788Z,21.00
2018-05-17T04:30:06.813Z,21.00
2018-05-17T04:31:06.855Z,21.00
2018-05-17T04:32:06.761Z,21.00
2018-05-17T04:33:06.795Z,21.00
2018-05-17T04:34:06.803Z,21.00
2018-05-17T04:35:06.763Z,21.00
2018-05-17T04:36:06.852Z,21.00
2018-05-17T04:37:06.868Z,14.30
2018-05-17T04:38:06.900Z,14.30
2018-05-17T04:39:06.869Z,14.30
2018-05-17T04:40:06.899Z,14.30
2018-05-17T04:41:06.903Z,14.30
2018-05-17T04:42:06.794Z,14.30
2018-05-17T04:43:06.901Z,14.30
2018-05-17T04:44:06.926Z,14.30
2018-05-17T04:45:06.902Z,14.30
2018-05-17T04:46:06.847Z,14.30
2018-05-17T04:47:06.871Z,14.50
2018-05-17T04:48:06.850Z,14.50
2018-05-17T04:49:06.838Z,14.50
2018-05-17T04:50:06.908Z,14.50
2018-05-17T04:51:06.800Z,14.50
2018-05-17T04:52:06.899Z,14.50
2018-05-17T04:53:06.908Z,14.50
2018-05-17T04:54:06.900Z,14.50
2018-05-17T04:55:06.849Z,14.50
2018-05-17T04:56:06.882Z,14.50
2018-05-17T04:57:06.792Z,13.00
2018-05-17T04:58:06.874Z,13.00
2018-05-17T04:59:06.875Z,13.00
2018-05-17T05:00:06.881Z,13.00
2018-05-17T05:01:06.840Z,13.00
2018-05-17T05:02:06.854Z,13.00
2018-05-17T05:03:06.788Z,13.00
2018-05-17T05:04:06.771Z,13.00
2018-05-17T05:05:06.813Z,13.00
2018-05-17T05:06:06.873Z,13.00
2018-05-17T05:07:06.926Z,12.30
2018-05-17T05:08:06.907Z,12.30
2018-05-17T05:09:06.860Z,12.30
2018-05-17T05:10:06.868Z,12.30
2018-05-17T05:11:06.929Z,12.30
2018-05-17T05:12:06.834Z,12.30
2018-05-17T05:13:06.830Z,12.30
2018-05-17T05:14:06.920Z,12.30
2018-05-17T05:15:06.928Z,12.30
2018-05-17T05:16:06.917Z,12.30
2018-05-17T05:17:06.837Z,11.60
2018-05-17T05:18:06.898Z,11.60
2018-05-17T05:19:06.929Z,11.60
2018-05-17T05:20:06.874Z,11.60
2018-05-17T05:21:06.800Z,11.60
2018-05-17T05:22:06.949Z,11.60
2018-05-17T05:23:06.877Z,11.60
2018-05-17T05:24:06.836Z,11.60
2018-05-17T05:25:06.900Z,11.60
2018-05-17T05:26:06.930Z,11.60
2018-05-17T05:27:06.857Z,10.60
2018-05-17T05:28:06.908Z,10.60
2018-05-17T05:29:06.846Z,10.60
2018-05-17T05:30:06.904Z,10.60
2018-05-17T05:31:06.838Z,10.60
2018-05-17T05:32:06.839Z,10.60
2018-05-17T05:33:06.840Z,10.60
2018-05-17T05:34:06.965Z,10.60
2018-05-17T05:35:06.909Z,10.60
2018-05-17T05:36:06.923Z,10.60
2018-05-17T05:37:06.843Z,13.50
2018-05-17T05:38:06.882Z,13.50
2018-05-17T05:39:06.949Z,13.50
2018-05-17T05:40:06.908Z,13.50
2018-05-17T05:41:06.897Z,13.50
2018-05-17T05:42:06.934Z,13.50
2018-05-17T05:43:06.892Z,13.50
2018-05-17T05:44:06.868Z,13.50
2018-05-17T05:45:06.885Z,13.50
2018-05-17T05:46:06.914Z,13.50
2018-05-17T05:47:06.881Z,12.90
2018-05-17T05:48:06.819Z,12.90
2018-05-17T05:49:06.854Z,12.90
2018-05-17T05:50:06.895Z,12.90
2018-05-17T05:51:06.855Z,12.90
2018-05-17T05:52:06.895Z,12.90
2018-05-17T05:53:06.841Z,12.90
2018-05-17T05:54:06.924Z,12.90
2018-05-17T05:55:06.896Z,12.90
2018-05-17T05:56:06.847Z,12.90
2018-05-17T05:57:06.817Z,17.50
2018-05-17T05:58:06.877Z,17.50
2018-05-17T05:59:06.875Z,17.50
2018-05-17T06:00:06.863Z,17.50
2018-05-17T06:01:06.789Z,17.50
2018-05-17T06:02:06.857Z,17.50
2018-05-17T06:03:06.861Z,17.50
2018-05-17T06:04:06.786Z,17.50
2018-05-17T06:05:06.854Z,17.50
2018-05-17T06:06:06.849Z,17.50
2018-05-17T06:07:06.884Z,18.00
2018-05-17T06:08:06.925Z,18.00
2018-05-17T06:09:06.834Z,18.00
2018-05-17T06:10:06.847Z,18.00
2018-05-17T06:11:06.887Z,18.00
2018-05-17T06:12:06.962Z,18.00
2018-05-17T06:13:06.839Z,18.00
2018-05-17T06:14:06.833Z,18.00
2018-05-17T06:15:06.925Z,18.00
2018-05-17T06:16:06.924Z,18.00
2018-05-17T06:17:06.890Z,15.70
2018-05-17T06:18:06.890Z,15.70
2018-05-17T06:19:06.919Z,15.70
2018-05-17T06:20:06.843Z,15.70
2018-05-17T06:21:06.868Z,15.70
2018-05-17T06:22:06.923Z,15.70
2018-05-17T06:23:06.933Z,15.70
2018-05-17T06:24:06.930Z,15.70
2018-05-17T06:25:06.838Z,15.70
2018-05-17T06:26:06.936Z,15.70
2018-05-17T06:27:06.876Z,12.50
2018-05-17T06:28:06.946Z,12.50
2018-05-17T06:29:06.885Z,12.50
2018-05-17T06:30:06.953Z,12.50
2018-05-17T06:31:06.942Z,12.50
2018-05-17T06:32:06.882Z,12.50
2018-05-17T06:33:06.883Z,12.50
2018-05-17T06:35:06.877Z,12.50
2018-05-17T06:36:06.946Z,12.50
2018-05-17T06:37:06.846Z,10.90
2018-05-17T06:38:06.903Z,10.90
2018-05-17T06:39:06.899Z,10.90
2018-05-17T06:40:06.879Z,10.90
2018-05-17T06:41:06.878Z,10.90
2018-05-17T06:42:06.834Z,10.90
2018-05-17T06:43:06.906Z,10.90
2018-05-17T06:44:06.840Z,10.90
2018-05-17T06:45:06.933Z,10.90
2018-05-17T06:46:06.886Z,10.90
2018-05-17T06:47:06.823Z,13.80
2018-05-17T06:48:06.943Z,13.80
2018-05-17T06:49:06.923Z,13.80
2018-05-17T06:50:06.825Z,13.80
2018-05-17T06:51:06.861Z,13.80
2018-05-17T06:52:06.909Z,13.80
2018-05-17T06:53:06.952Z,13.80
2018-05-17T06:54:06.897Z,13.80
2018-05-17T06:55:06.950Z,13.80
2018-05-17T06:56:06.866Z,13.80
2018-05-17T06:57:06.930Z,10.90
2018-05-17T06:58:06.894Z,10.90
2018-05-17T06:59:06.965Z,10.90
2018-05-17T07:00:06.896Z,10.90
2018-05-17T07:01:06.928Z,10.90
2018-05-17T07:02:06.964Z,10.90
2018-05-17T07:03:06.863Z,10.90
2018-05-17T07:04:06.900Z,10.90
2018-05-17T07:05:06.959Z,10.90
2018-05-17T07:06:06.897Z,10.90
2018-05-17T07:07:06.824Z,14.00
2018-05-17T07:08:06.819Z,14.00
2018-05-17T07:09:06.905Z,14.00
2018-05-17T07:10:06.870Z,14.00
2018-05-17T07:11:06.869Z,14.00
2018-05-17T07:12:06.916Z,14.00
2018-05-17T07:13:06.796Z,14.00
2018-05-17T07:14:06.830Z,14.00
2018-05-17T07:15:06.908Z,14.00
2018-05-17T07:16:06.881Z,14.00
2018-05-17T07:17:06.908Z,11.90
2018-05-17T07:18:07.230Z,11.90
2018-05-17T07:19:06.907Z,11.90
2018-05-17T07:20:06.977Z,11.90
2018-05-17T07:21:06.925Z,11.90
2018-05-17T07:22:06.980Z,11.90
2018-05-17T07:23:06.910Z,11.90
2018-05-17T07:24:07.058Z,11.90
2018-05-17T07:25:06.909Z,11.90
2018-05-17T07:26:06.994Z,11.90
2018-05-17T07:27:07.018Z,13.80
2018-05-17T07:28:06.981Z,13.80
2018-05-17T07:29:06.998Z,13.80
2018-05-17T07:30:06.956Z,13.80
2018-05-17T07:31:06.955Z,13.80
2018-05-17T07:32:06.940Z,13.80
2018-05-17T07:33:06.983Z,13.80
2018-05-17T07:34:06.952Z,13.80
2018-05-17T07:35:06.946Z,13.80
2018-05-17T07:36:06.925Z,13.80
2018-05-17T07:37:06.913Z,13.40
2018-05-17T07:38:06.909Z,13.40
2018-05-17T07:39:06.887Z,13.40
2018-05-17T07:40:06.990Z,13.40
2018-05-17T07:41:06.862Z,13.40
2018-05-17T07:42:06.976Z,13.40
2018-05-17T07:43:06.858Z,13.40
2018-05-17T07:44:06.947Z,13.40
2018-05-17T07:45:06.909Z,13.40
2018-05-17T07:46:06.928Z,13.40
2018-05-17T07:47:07.026Z,11.80
2018-05-17T07:48:07.022Z,11.80
2018-05-17T07:49:06.971Z,11.80
2018-05-17T07:50:06.977Z,11.80
2018-05-17T07:51:06.947Z,11.80
2018-05-17T07:52:06.950Z,11.80
2018-05-17T07:53:06.970Z,11.80
2018-05-17T07:54:07.030Z,11.80
2018-05-17T07:55:06.960Z,11.80
2018-05-17T07:56:07.109Z,11.80
2018-05-17T07:57:06.932Z,11.30
2018-05-17T07:58:06.998Z,11.30
2018-05-17T07:59:07.001Z,11.30
2018-05-17T08:00:07.000Z,11.30
2018-05-17T08:01:07.032Z,11.30
2018-05-17T08:02:07.005Z,11.30
2018-05-17T08:03:06.885Z,11.30
2018-05-17T08:04:07.006Z,11.30
2018-05-17T08:05:07.005Z,11.30
2018-05-17T08:06:07.002Z,11.30
2018-05-17T08:07:07.000Z,11.40
2018-05-17T08:08:06.946Z,11.40
2018-05-17T08:09:06.990Z,11.40
2018-05-17T08:10:07.007Z,11.40
2018-05-17T08:11:07.007Z,11.40
2018-05-17T08:12:06.945Z,11.40
2018-05-17T08:13:07.006Z,11.40
2018-05-17T08:14:06.947Z,11.40
2018-05-17T08:15:07.009Z,11.40
2018-05-17T08:16:06.944Z,11.40
2018-05-17T08:17:07.008Z,9.70
2018-05-17T08:18:06.915Z,9.70
2018-05-17T08:19:06.879Z,9.70
2018-05-17T08:20:06.934Z,9.70
2018-05-17T08:21:06.918Z,9.70
2018-05-17T08:22:06.882Z,9.70
2018-05-17T08:23:06.933Z,9.70
2018-05-17T08:24:06.946Z,9.70
2018-05-17T08:25:06.956Z,9.70
2018-05-17T08:26:06.920Z,9.70
2018-05-17T08:27:06.954Z,11.50
2018-05-17T08:28:06.951Z,11.50
2018-05-17T08:29:06.954Z,11.50
2018-05-17T08:30:06.953Z,11.50
2018-05-17T08:31:07.020Z,11.50
2018-05-17T08:32:07.023Z,11.50
2018-05-17T08:33:07.035Z,11.50
2018-05-17T08:34:06.958Z,11.50
2018-05-17T08:35:07.028Z,11.50
2018-05-17T08:36:07.062Z,11.50
2018-05-17T08:37:06.922Z,11.50
2018-05-17T08:38:07.062Z,11.40
2018-05-17T08:39:06.927Z,11.40
2018-05-17T08:40:06.934Z,11.40
2018-05-17T08:41:06.983Z,11.40
2018-05-17T08:42:07.071Z,11.40
2018-05-17T08:43:07.073Z,11.40
2018-05-17T08:44:06.993Z,11.40
2018-05-17T08:45:06.991Z,11.40
2018-05-17T08:46:07.061Z,11.40
2018-05-17T08:47:07.114Z,11.40
2018-05-17T08:48:06.887Z,13.60
2018-05-17T08:49:06.980Z,13.60
2018-05-17T08:50:06.930Z,13.60
2018-05-17T08:51:06.855Z,13.60
2018-05-17T08:52:06.933Z,13.60
2018-05-17T08:53:06.890Z,13.60
2018-05-17T08:54:06.890Z,13.60
2018-05-17T08:55:06.933Z,13.60
2018-05-17T08:56:06.894Z,13.60
2018-05-17T08:57:06.937Z,13.60
2018-05-17T08:58:07.038Z,11.30
2018-05-17T08:59:07.044Z,11.30
2018-05-17T09:00:06.985Z,11.30
2018-05-17T09:01:07.014Z,11.30
2018-05-17T09:02:07.038Z,11.30
2018-05-17T09:03:07.045Z,11.30
2018-05-17T09:04:06.979Z,11.30
2018-05-17T09:05:06.940Z,11.30
2018-05-17T09:06:06.998Z,11.30
2018-05-17T09:07:07.047Z,11.30
2018-05-17T09:08:06.941Z,9.90
2018-05-17T09:09:07.052Z,9.90
2018-05-17T09:10:07.011Z,9.90
2018-05-17T09:11:07.053Z,9.90
2018-05-17T09:12:07.045Z,9.90
2018-05-17T09:13:06.981Z,9.90
2018-05-17T09:14:07.055Z,9.90
2018-05-17T09:15:07.048Z,9.90
2018-05-17T09:16:07.047Z,9.90
2018-05-17T09:17:06.984Z,9.90
2018-05-17T09:18:07.073Z,9.70
2018-05-17T09:19:07.057Z,9.70
2018-05-17T09:20:07.078Z,9.70
2018-05-17T09:21:07.017Z,9.70
2018-05-17T09:22:07.089Z,9.70
2018-05-17T09:23:07.097Z,9.70
2018-05-17T09:24:07.090Z,9.70
2018-05-17T09:25:07.034Z,9.70
2018-05-17T09:26:07.089Z,9.70
2018-05-17T09:27:07.054Z,9.70
2018-05-17T09:28:07.061Z,12.40
2018-05-17T09:29:07.069Z,12.40
2018-05-17T09:30:06.957Z,12.40
2018-05-17T09:31:07.096Z,12.40
2018-05-17T09:32:07.092Z,12.40
2018-05-17T09:33:07.035Z,12.40
2018-05-17T09:34:07.083Z,12.40
2018-05-17T09:35:07.067Z,12.40
2018-05-17T09:36:07.063Z,12.40
2018-05-17T09:37:07.095Z,12.40
2018-05-17T09:38:07.053Z,13.40
2018-05-17T09:39:06.976Z,13.40
2018-05-17T09:40:06.967Z,13.40
2018-05-17T09:41:07.003Z,13.40
2018-05-17T09:42:06.968Z,13.40
2018-05-17T09:43:07.063Z,13.40
2018-05-17T09:44:06.988Z,13.40
2018-05-17T09:45:07.057Z,13.40
2018-05-17T09:46:06.973Z,13.40
2018-05-17T09:47:06.971Z,13.40
2018-05-17T09:48:07.039Z,9.40
2018-05-17T09:49:06.955Z,9.40
2018-05-17T09:50:07.062Z,9.40
2018-05-17T09:51:06.941Z,9.40
2018-05-17T09:52:07.056Z,9.40
2018-05-17T09:53:06.962Z,9.40
2018-05-17T09:54:06.942Z,9.40
2018-05-17T09:55:07.068Z,9.40
2018-05-17T09:56:06.964Z,9.40
2018-05-17T09:57:06.984Z,9.40
2018-05-17T09:58:07.035Z,12.50
2018-05-17T09:59:07.045Z,12.50
2018-05-17T10:00:07.045Z,12.50
2018-05-17T10:01:07.003Z,12.50
2018-05-17T10:02:07.113Z,12.50
2018-05-17T10:03:07.115Z,12.50
2018-05-17T10:04:07.112Z,12.50
2018-05-17T10:05:07.110Z,12.50
2018-05-17T10:06:07.059Z,12.50
2018-05-17T10:07:07.114Z,12.50
2018-05-17T10:08:07.051Z,15.30
2018-05-17T10:09:07.009Z,15.30
2018-05-17T10:10:07.058Z,15.30
2018-05-17T10:11:06.993Z,15.30
2018-05-17T10:12:07.032Z,15.30
2018-05-17T10:13:07.053Z,15.30
2018-05-17T10:14:07.086Z,15.30
2018-05-17T10:15:07.088Z,15.30
2018-05-17T10:16:07.084Z,15.30
2018-05-17T10:17:07.027Z,15.30
2018-05-17T10:18:07.081Z,11.60
2018-05-17T10:19:07.071Z,11.60
2018-05-17T10:20:07.057Z,11.60
2018-05-17T10:21:06.957Z,11.60
2018-05-17T10:22:07.093Z,11.60
2018-05-17T10:23:07.097Z,11.60
2018-05-17T10:24:07.078Z,11.60
2018-05-17T10:25:07.036Z,11.60
2018-05-17T10:26:07.093Z,11.60
2018-05-17T10:27:07.076Z,11.60
2018-05-17T10:28:07.101Z,10.00
2018-05-17T10:29:07.081Z,10.00
2018-05-17T10:30:07.097Z,10.00
2018-05-17T10:31:07.007Z,10.00
2018-05-17T10:32:07.032Z,10.00
2018-05-17T10:33:07.088Z,10.00
2018-05-17T10:34:07.036Z,10.00
2018-05-17T10:35:06.981Z,10.00
2018-05-17T10:36:07.093Z,10.00
2018-05-17T10:37:07.027Z,10.00
2018-05-17T10:38:07.104Z,14.90
2018-05-17T10:39:07.116Z,14.90
2018-05-17T10:40:07.107Z,14.90
2018-05-17T10:41:07.031Z,14.90
2018-05-17T10:42:07.128Z,14.90
2018-05-17T10:43:07.140Z,14.90
2018-05-17T10:44:07.135Z,14.90
2018-05-17T10:45:07.124Z,14.90
2018-05-17T10:46:07.146Z,14.90
2018-05-17T10:47:07.088Z,14.90
2018-05-17T10:48:07.013Z,8.70
2018-05-17T10:49:07.031Z,8.70
2018-05-17T10:50:07.149Z,8.70
2018-05-17T10:51:07.089Z,8.70
2018-05-17T10:52:07.090Z,8.70
2018-05-17T10:53:07.111Z,8.70
2018-05-17T10:54:07.090Z,8.70
2018-05-17T10:55:07.145Z,8.70
2018-05-17T10:56:07.140Z,8.70
2018-05-17T10:57:07.089Z,8.70
2018-05-17T10:58:07.054Z,12.70
2018-05-17T10:59:07.119Z,12.70
2018-05-17T11:00:07.071Z,12.70
2018-05-17T11:01:07.124Z,12.70
2018-05-17T11:02:07.118Z,12.70
2018-05-17T11:03:07.122Z,12.70
2018-05-17T11:04:07.207Z,12.70
2018-05-17T11:05:07.059Z,12.70
2018-05-17T11:06:07.058Z,12.70
2018-05-17T11:07:07.059Z,12.70
2018-05-17T11:08:07.137Z,11.30
2018-05-17T11:09:07.049Z,11.30
2018-05-17T11:10:07.146Z,11.30
2018-05-17T11:11:07.106Z,11.30
2018-05-17T11:12:07.166Z,11.30
2018-05-17T11:13:07.162Z,11.30
2018-05-17T11:14:07.071Z,11.30
2018-05-17T11:15:07.194Z,11.30
2018-05-17T11:16:07.052Z,11.30
2018-05-17T11:17:07.101Z,11.30
2018-05-17T11:18:07.166Z,14.30
2018-05-17T11:19:07.128Z,14.30
2018-05-17T11:20:07.176Z,14.30
2018-05-17T11:21:07.099Z,14.30
2018-05-17T11:22:07.144Z,14.30
2018-05-17T11:23:07.088Z,14.30
2018-05-17T11:24:07.072Z,14.30
2018-05-17T11:25:07.164Z,14.30
2018-05-17T11:26:07.135Z,14.30
2018-05-17T11:27:07.103Z,14.30
2018-05-17T11:28:07.127Z,12.80
2018-05-17T11:29:07.098Z,12.80
2018-05-17T11:30:07.135Z,12.80
2018-05-17T11:31:07.169Z,12.80
2018-05-17T11:32:07.148Z,12.80
2018-05-17T11:33:07.177Z,12.80
2018-05-17T11:34:07.108Z,12.80
2018-05-17T11:35:07.168Z,12.80
2018-05-17T11:36:07.141Z,12.80
2018-05-17T11:37:07.105Z,12.80
2018-05-17T11:38:07.144Z,12.20
2018-05-17T11:39:07.083Z,12.20
2018-05-17T11:40:07.161Z,12.20
2018-05-17T11:41:07.180Z,12.20
2018-05-17T11:42:07.175Z,12.20
2018-05-17T11:43:07.148Z,12.20
2018-05-17T11:44:07.170Z,12.20
2018-05-17T11:45:07.167Z,12.20
2018-05-17T11:46:07.028Z,12.20
2018-05-17T11:47:07.121Z,12.20
2018-05-17T11:48:07.115Z,12.80
2018-05-17T11:49:07.153Z,12.80
2018-05-17T11:50:07.120Z,12.80
2018-05-17T11:51:07.183Z,12.80
2018-05-17T11:52:07.171Z,12.80
2018-05-17T11:53:07.175Z,12.80
2018-05-17T11:54:07.177Z,12.80
2018-05-17T11:55:07.075Z,12.80
2018-05-17T11:56:07.157Z,12.80
2018-05-17T11:57:07.078Z,12.80
2018-05-17T11:58:07.188Z,9.90
2018-05-17T11:59:07.180Z,9.90
2018-05-17T12:00:07.183Z,9.90
2018-05-17T12:01:07.120Z,9.90
2018-05-17T12:02:07.127Z,9.90
2018-05-17T12:03:07.092Z,9.90
2018-05-17T12:04:07.093Z,9.90
2018-05-17T12:05:07.175Z,9.90
2018-05-17T12:06:07.164Z,9.90
2018-05-17T12:07:07.120Z,9.90
2018-05-17T12:08:07.081Z,11.30
2018-05-17T12:09:07.127Z,11.30
2018-05-17T12:10:07.199Z,11.30
2018-05-17T12:11:07.189Z,11.30
2018-05-17T12:12:07.123Z,11.30
2018-05-17T12:13:07.162Z,11.30
2018-05-17T12:14:07.072Z,11.30
2018-05-17T12:15:07.072Z,11.30
2018-05-17T12:16:07.086Z,11.30
2018-05-17T12:17:07.188Z,11.30
2018-05-17T12:18:07.133Z,13.90
2018-05-17T12:19:07.166Z,13.90
2018-05-17T12:20:07.107Z,13.90
2018-05-17T12:22:07.091Z,13.90
2018-05-17T12:23:07.231Z,13.90
2018-05-17T12:24:07.131Z,13.90
2018-05-17T12:25:07.170Z,13.90
2018-05-17T12:26:07.093Z,13.90
2018-05-17T12:27:07.099Z,13.90
2018-05-17T12:28:07.178Z,9.70
2018-05-17T12:29:07.135Z,9.70
2018-05-17T12:30:07.204Z,9.70
2018-05-17T12:31:07.144Z,9.70
2018-05-17T12:32:07.215Z,9.70
2018-05-17T12:33:07.156Z,9.70
2018-05-17T12:34:07.149Z,9.70
2018-05-17T12:35:07.211Z,9.70
2018-05-17T12:36:07.088Z,9.70
2018-05-17T12:37:07.291Z,9.70
2018-05-17T12:38:07.137Z,10.90
2018-05-17T12:39:07.155Z,10.90
2018-05-17T12:40:07.142Z,10.90
2018-05-17T12:41:07.087Z,10.90
2018-05-17T12:42:07.183Z,10.90
2018-05-17T12:43:07.092Z,10.90
2018-05-17T12:44:07.178Z,10.90
2018-05-17T12:45:07.141Z,10.90
2018-05-17T12:46:07.155Z,10.90
2018-05-17T12:47:07.196Z,10.90
2018-05-17T12:48:07.163Z,11.30
2018-05-17T12:50:07.205Z,11.30
2018-05-17T12:51:07.189Z,11.30
2018-05-17T12:52:07.220Z,11.30
2018-05-17T12:53:07.161Z,11.30
2018-05-17T12:54:07.234Z,11.30
2018-05-17T12:55:07.212Z,11.30
2018-05-17T12:56:07.214Z,11.30
2018-05-17T12:57:07.192Z,11.30